sensor_id;sensor_type;location;lat;lon;timestamp;P1;durP1;ratioP1;P2;durP2;ratioP2
22314;SDS011;11325;55.686;37.566;2024-03-22T00:01:01;11.97;;;5.67;;
22314;SDS011;11325;55.686;37.566;2024-03-22T00:03:29;13.20;;;5.78;;
22314;SDS011;11325;55.686;37.566;2024-03-22T00:05:57;19.40;;;7.12;;
22314;SDS011;11325;55.686;37.566;2024-03-22T00:08:25;16.80;;;6.17;;
22314;SDS011;11325;55.686;37.566;2024-03-22T00:10:53;13.58;;;5.83;;
22314;SDS011;11325;55.686;37.566;2024-03-22T00:13:22;20.17;;;5.95;;
22314;SDS011;11325;55.686;37.566;2024-03-22T00:15:50;12.25;;;6.97;;
22314;SDS011;11325;55.686;37.566;2024-03-22T00:18:18;14.00;;;6.75;;
22314;SDS011;11325;55.686;37.566;2024-03-22T00:20:46;15.43;;;5.95;;
22314;SDS011;11325;55.686;37.566;2024-03-22T00:23:14;13.98;;;5.12;;
22314;SDS011;11325;55.686;37.566;2024-03-22T00:25:42;13.48;;;5.80;;
22314;SDS011;11325;55.686;37.566;2024-03-22T00:28:11;15.13;;;6.22;;
22314;SDS011;11325;55.686;37.566;2024-03-22T00:30:39;15.60;;;6.55;;
22314;SDS011;11325;55.686;37.566;2024-03-22T00:33:07;13.98;;;6.03;;
22314;SDS011;11325;55.686;37.566;2024-03-22T00:35:36;11.12;;;5.97;;
22314;SDS011;11325;55.686;37.566;2024-03-22T00:38:04;16.00;;;5.92;;
22314;SDS011;11325;55.686;37.566;2024-03-22T00:40:32;13.90;;;6.30;;
22314;SDS011;11325;55.686;37.566;2024-03-22T00:43:01;11.50;;;6.35;;
22314;SDS011;11325;55.686;37.566;2024-03-22T00:45:29;11.88;;;5.75;;
22314;SDS011;11325;55.686;37.566;2024-03-22T00:47:57;13.93;;;6.05;;
22314;SDS011;11325;55.686;37.566;2024-03-22T00:50:25;11.38;;;5.87;;
22314;SDS011;11325;55.686;37.566;2024-03-22T00:52:54;19.90;;;5.75;;
22314;SDS011;11325;55.686;37.566;2024-03-22T00:55:24;14.50;;;6.20;;
22314;SDS011;11325;55.686;37.566;2024-03-22T00:57:52;13.10;;;5.95;;
22314;SDS011;11325;55.686;37.566;2024-03-22T01:00:20;11.57;;;6.25;;
22314;SDS011;11325;55.686;37.566;2024-03-22T01:02:49;15.88;;;6.72;;
22314;SDS011;11325;55.686;37.566;2024-03-22T01:05:17;14.25;;;6.58;;
22314;SDS011;11325;55.686;37.566;2024-03-22T01:07:45;13.13;;;6.42;;
22314;SDS011;11325;55.686;37.566;2024-03-22T01:10:13;15.38;;;6.20;;
22314;SDS011;11325;55.686;37.566;2024-03-22T01:12:42;12.82;;;5.70;;
22314;SDS011;11325;55.686;37.566;2024-03-22T01:15:10;17.95;;;6.97;;
22314;SDS011;11325;55.686;37.566;2024-03-22T01:17:38;14.83;;;5.78;;
22314;SDS011;11325;55.686;37.566;2024-03-22T01:20:07;27.15;;;7.05;;
22314;SDS011;11325;55.686;37.566;2024-03-22T01:22:35;13.00;;;6.80;;
22314;SDS011;11325;55.686;37.566;2024-03-22T01:25:04;21.87;;;6.30;;
22314;SDS011;11325;55.686;37.566;2024-03-22T01:27:32;10.40;;;5.87;;
22314;SDS011;11325;55.686;37.566;2024-03-22T01:30:01;16.48;;;6.08;;
22314;SDS011;11325;55.686;37.566;2024-03-22T01:32:30;10.48;;;5.72;;
22314;SDS011;11325;55.686;37.566;2024-03-22T01:34:58;13.38;;;5.87;;
22314;SDS011;11325;55.686;37.566;2024-03-22T01:37:28;15.90;;;6.08;;
22314;SDS011;11325;55.686;37.566;2024-03-22T01:39:56;11.48;;;5.22;;
22314;SDS011;11325;55.686;37.566;2024-03-22T01:42:25;9.55;;;5.33;;
22314;SDS011;11325;55.686;37.566;2024-03-22T01:44:53;9.73;;;5.40;;
22314;SDS011;11325;55.686;37.566;2024-03-22T01:47:21;10.95;;;4.87;;
22314;SDS011;11325;55.686;37.566;2024-03-22T01:49:50;10.20;;;4.72;;
22314;SDS011;11325;55.686;37.566;2024-03-22T01:52:18;14.68;;;5.80;;
22314;SDS011;11325;55.686;37.566;2024-03-22T01:54:47;11.20;;;6.20;;
22314;SDS011;11325;55.686;37.566;2024-03-22T01:57:16;9.45;;;5.25;;
22314;SDS011;11325;55.686;37.566;2024-03-22T01:59:44;11.80;;;5.10;;
22314;SDS011;11325;55.686;37.566;2024-03-22T02:02:14;12.53;;;5.95;;
22314;SDS011;11325;55.686;37.566;2024-03-22T02:04:42;13.50;;;6.25;;
22314;SDS011;11325;55.686;37.566;2024-03-22T02:07:10;12.68;;;5.05;;
22314;SDS011;11325;55.686;37.566;2024-03-22T02:09:38;11.75;;;5.72;;
22314;SDS011;11325;55.686;37.566;2024-03-22T02:12:06;10.05;;;5.10;;
22314;SDS011;11325;55.686;37.566;2024-03-22T02:14:35;14.07;;;5.37;;
22314;SDS011;11325;55.686;37.566;2024-03-22T02:17:03;17.42;;;6.15;;
22314;SDS011;11325;55.686;37.566;2024-03-22T02:19:31;14.15;;;4.97;;
22314;SDS011;11325;55.686;37.566;2024-03-22T02:21:59;12.07;;;5.95;;
22314;SDS011;11325;55.686;37.566;2024-03-22T02:24:27;13.88;;;5.35;;
22314;SDS011;11325;55.686;37.566;2024-03-22T02:26:55;11.48;;;5.45;;
22314;SDS011;11325;55.686;37.566;2024-03-22T02:29:24;13.25;;;6.25;;
22314;SDS011;11325;55.686;37.566;2024-03-22T02:31:52;12.80;;;6.28;;
22314;SDS011;11325;55.686;37.566;2024-03-22T02:34:20;14.35;;;6.28;;
22314;SDS011;11325;55.686;37.566;2024-03-22T02:36:49;16.48;;;6.42;;
22314;SDS011;11325;55.686;37.566;2024-03-22T02:39:17;15.75;;;5.92;;
22314;SDS011;11325;55.686;37.566;2024-03-22T02:41:45;13.68;;;6.17;;
22314;SDS011;11325;55.686;37.566;2024-03-22T02:44:13;11.68;;;5.78;;
22314;SDS011;11325;55.686;37.566;2024-03-22T02:46:41;13.32;;;6.03;;
22314;SDS011;11325;55.686;37.566;2024-03-22T02:49:09;13.32;;;5.97;;
22314;SDS011;11325;55.686;37.566;2024-03-22T02:51:37;15.43;;;6.45;;
22314;SDS011;11325;55.686;37.566;2024-03-22T02:54:05;15.63;;;7.60;;
22314;SDS011;11325;55.686;37.566;2024-03-22T02:56:34;28.45;;;6.92;;
22314;SDS011;11325;55.686;37.566;2024-03-22T02:59:02;12.13;;;7.17;;
22314;SDS011;11325;55.686;37.566;2024-03-22T03:01:30;16.50;;;6.80;;
22314;SDS011;11325;55.686;37.566;2024-03-22T03:04:00;12.25;;;7.30;;
22314;SDS011;11325;55.686;37.566;2024-03-22T03:06:28;25.02;;;7.58;;
22314;SDS011;11325;55.686;37.566;2024-03-22T03:08:56;20.60;;;7.60;;
22314;SDS011;11325;55.686;37.566;2024-03-22T03:11:24;26.90;;;7.70;;
22314;SDS011;11325;55.686;37.566;2024-03-22T03:13:52;28.50;;;8.28;;
22314;SDS011;11325;55.686;37.566;2024-03-22T03:16:21;17.00;;;7.65;;
22314;SDS011;11325;55.686;37.566;2024-03-22T03:18:49;12.25;;;7.15;;
22314;SDS011;11325;55.686;37.566;2024-03-22T03:21:17;19.67;;;7.30;;
22314;SDS011;11325;55.686;37.566;2024-03-22T03:23:45;23.75;;;8.15;;
22314;SDS011;11325;55.686;37.566;2024-03-22T03:26:14;17.02;;;8.35;;
22314;SDS011;11325;55.686;37.566;2024-03-22T03:28:42;17.45;;;7.95;;
22314;SDS011;11325;55.686;37.566;2024-03-22T03:31:10;14.73;;;7.95;;
22314;SDS011;11325;55.686;37.566;2024-03-22T03:33:39;14.18;;;8.20;;
22314;SDS011;11325;55.686;37.566;2024-03-22T03:36:07;16.27;;;8.38;;
22314;SDS011;11325;55.686;37.566;2024-03-22T03:38:35;17.85;;;9.28;;
22314;SDS011;11325;55.686;37.566;2024-03-22T03:41:05;22.95;;;9.18;;
22314;SDS011;11325;55.686;37.566;2024-03-22T03:43:33;19.60;;;8.50;;
22314;SDS011;11325;55.686;37.566;2024-03-22T03:46:01;19.98;;;8.58;;
22314;SDS011;11325;55.686;37.566;2024-03-22T03:48:29;16.80;;;8.13;;
22314;SDS011;11325;55.686;37.566;2024-03-22T03:50:58;20.55;;;8.55;;
22314;SDS011;11325;55.686;37.566;2024-03-22T03:53:29;16.67;;;8.55;;
22314;SDS011;11325;55.686;37.566;2024-03-22T03:55:57;19.17;;;9.10;;
22314;SDS011;11325;55.686;37.566;2024-03-22T03:58:25;18.70;;;9.13;;
22314;SDS011;11325;55.686;37.566;2024-03-22T04:00:54;12.25;;;8.50;;
22314;SDS011;11325;55.686;37.566;2024-03-22T04:03:22;26.42;;;10.43;;
22314;SDS011;11325;55.686;37.566;2024-03-22T04:05:57;14.87;;;8.10;;
22314;SDS011;11325;55.686;37.566;2024-03-22T04:08:25;26.42;;;9.03;;
22314;SDS011;11325;55.686;37.566;2024-03-22T04:10:53;18.02;;;10.05;;
22314;SDS011;11325;55.686;37.566;2024-03-22T04:13:24;16.65;;;9.78;;
22314;SDS011;11325;55.686;37.566;2024-03-22T04:15:52;20.52;;;9.53;;
22314;SDS011;11325;55.686;37.566;2024-03-22T04:18:21;18.42;;;9.48;;
22314;SDS011;11325;55.686;37.566;2024-03-22T04:21:00;24.25;;;9.75;;
22314;SDS011;11325;55.686;37.566;2024-03-22T04:23:25;17.05;;;9.28;;
22314;SDS011;11325;55.686;37.566;2024-03-22T04:25:57;17.50;;;9.98;;
22314;SDS011;11325;55.686;37.566;2024-03-22T04:28:27;19.62;;;10.55;;
22314;SDS011;11325;55.686;37.566;2024-03-22T04:33:30;27.07;;;12.00;;
22314;SDS011;11325;55.686;37.566;2024-03-22T04:35:58;24.20;;;10.23;;
22314;SDS011;11325;55.686;37.566;2024-03-22T04:38:28;24.15;;;11.28;;
22314;SDS011;11325;55.686;37.566;2024-03-22T04:40:56;22.05;;;11.10;;
22314;SDS011;11325;55.686;37.566;2024-03-22T04:43:25;30.17;;;11.73;;
22314;SDS011;11325;55.686;37.566;2024-03-22T04:45:53;16.77;;;10.28;;
22314;SDS011;11325;55.686;37.566;2024-03-22T04:48:21;22.75;;;10.75;;
22314;SDS011;11325;55.686;37.566;2024-03-22T04:50:50;34.25;;;12.03;;
22314;SDS011;11325;55.686;37.566;2024-03-22T04:53:19;25.08;;;10.43;;
22314;SDS011;11325;55.686;37.566;2024-03-22T04:55:50;29.98;;;9.93;;
22314;SDS011;11325;55.686;37.566;2024-03-22T04:58:19;27.37;;;11.63;;
22314;SDS011;11325;55.686;37.566;2024-03-22T05:00:48;29.70;;;11.38;;
22314;SDS011;11325;55.686;37.566;2024-03-22T05:03:17;27.55;;;11.60;;
22314;SDS011;11325;55.686;37.566;2024-03-22T05:05:46;31.02;;;11.90;;
22314;SDS011;11325;55.686;37.566;2024-03-22T05:08:14;22.37;;;11.53;;
22314;SDS011;11325;55.686;37.566;2024-03-22T05:10:43;34.50;;;11.10;;
22314;SDS011;11325;55.686;37.566;2024-03-22T05:13:11;25.57;;;10.45;;
22314;SDS011;11325;55.686;37.566;2024-03-22T05:15:39;35.60;;;11.48;;
22314;SDS011;11325;55.686;37.566;2024-03-22T05:18:08;24.25;;;11.03;;
22314;SDS011;11325;55.686;37.566;2024-03-22T05:20:36;23.47;;;10.63;;
22314;SDS011;11325;55.686;37.566;2024-03-22T05:23:05;21.12;;;10.53;;
22314;SDS011;11325;55.686;37.566;2024-03-22T05:25:33;25.92;;;11.30;;
22314;SDS011;11325;55.686;37.566;2024-03-22T05:28:01;26.45;;;10.78;;
22314;SDS011;11325;55.686;37.566;2024-03-22T05:30:29;31.87;;;10.25;;
22314;SDS011;11325;55.686;37.566;2024-03-22T05:32:57;23.47;;;11.12;;
22314;SDS011;11325;55.686;37.566;2024-03-22T05:35:26;27.13;;;11.78;;
22314;SDS011;11325;55.686;37.566;2024-03-22T05:37:55;22.67;;;11.78;;
22314;SDS011;11325;55.686;37.566;2024-03-22T05:40:23;38.02;;;11.68;;
22314;SDS011;11325;55.686;37.566;2024-03-22T05:42:51;26.68;;;10.48;;
22314;SDS011;11325;55.686;37.566;2024-03-22T05:45:19;28.38;;;11.35;;
22314;SDS011;11325;55.686;37.566;2024-03-22T05:47:48;36.42;;;11.95;;
22314;SDS011;11325;55.686;37.566;2024-03-22T05:50:16;40.17;;;12.40;;
22314;SDS011;11325;55.686;37.566;2024-03-22T05:52:44;20.25;;;10.15;;
22314;SDS011;11325;55.686;37.566;2024-03-22T05:55:12;25.00;;;10.98;;
22314;SDS011;11325;55.686;37.566;2024-03-22T05:57:40;21.15;;;10.75;;
22314;SDS011;11325;55.686;37.566;2024-03-22T06:00:09;27.70;;;12.15;;
22314;SDS011;11325;55.686;37.566;2024-03-22T06:02:39;21.33;;;10.68;;
22314;SDS011;11325;55.686;37.566;2024-03-22T06:05:07;22.67;;;11.10;;
22314;SDS011;11325;55.686;37.566;2024-03-22T06:07:35;27.10;;;11.20;;
22314;SDS011;11325;55.686;37.566;2024-03-22T06:10:05;44.27;;;12.33;;
22314;SDS011;11325;55.686;37.566;2024-03-22T06:12:34;23.45;;;10.95;;
22314;SDS011;11325;55.686;37.566;2024-03-22T06:15:03;36.83;;;11.55;;
22314;SDS011;11325;55.686;37.566;2024-03-22T06:17:33;18.00;;;9.68;;
22314;SDS011;11325;55.686;37.566;2024-03-22T06:20:01;18.85;;;9.93;;
22314;SDS011;11325;55.686;37.566;2024-03-22T06:22:29;22.00;;;9.93;;
22314;SDS011;11325;55.686;37.566;2024-03-22T06:24:58;23.40;;;10.08;;
22314;SDS011;11325;55.686;37.566;2024-03-22T06:27:26;21.65;;;9.35;;
22314;SDS011;11325;55.686;37.566;2024-03-22T06:29:54;28.57;;;10.05;;
22314;SDS011;11325;55.686;37.566;2024-03-22T06:32:23;23.98;;;9.73;;
22314;SDS011;11325;55.686;37.566;2024-03-22T06:34:51;26.57;;;9.08;;
22314;SDS011;11325;55.686;37.566;2024-03-22T06:37:19;26.75;;;9.65;;
22314;SDS011;11325;55.686;37.566;2024-03-22T06:39:47;23.10;;;9.68;;
22314;SDS011;11325;55.686;37.566;2024-03-22T06:42:15;20.72;;;9.93;;
22314;SDS011;11325;55.686;37.566;2024-03-22T06:44:43;38.20;;;10.30;;
22314;SDS011;11325;55.686;37.566;2024-03-22T06:47:11;19.12;;;9.63;;
22314;SDS011;11325;55.686;37.566;2024-03-22T06:49:39;24.23;;;10.32;;
22314;SDS011;11325;55.686;37.566;2024-03-22T06:52:08;22.93;;;10.28;;
22314;SDS011;11325;55.686;37.566;2024-03-22T06:54:37;22.67;;;10.10;;
22314;SDS011;11325;55.686;37.566;2024-03-22T06:57:05;22.93;;;9.33;;
22314;SDS011;11325;55.686;37.566;2024-03-22T06:59:33;17.40;;;10.63;;
22314;SDS011;11325;55.686;37.566;2024-03-22T07:02:02;25.60;;;10.65;;
22314;SDS011;11325;55.686;37.566;2024-03-22T07:04:30;22.65;;;10.72;;
22314;SDS011;11325;55.686;37.566;2024-03-22T07:06:58;31.15;;;11.15;;
22314;SDS011;11325;55.686;37.566;2024-03-22T07:09:26;29.87;;;10.78;;
22314;SDS011;11325;55.686;37.566;2024-03-22T07:11:56;30.70;;;11.10;;
22314;SDS011;11325;55.686;37.566;2024-03-22T07:14:24;20.32;;;11.08;;
22314;SDS011;11325;55.686;37.566;2024-03-22T07:16:52;31.27;;;10.10;;
22314;SDS011;11325;55.686;37.566;2024-03-22T07:19:22;30.48;;;11.30;;
22314;SDS011;11325;55.686;37.566;2024-03-22T07:21:50;20.77;;;10.18;;
22314;SDS011;11325;55.686;37.566;2024-03-22T07:24:18;18.40;;;9.90;;
22314;SDS011;11325;55.686;37.566;2024-03-22T07:26:46;20.75;;;10.00;;
22314;SDS011;11325;55.686;37.566;2024-03-22T07:29:15;17.85;;;9.10;;
22314;SDS011;11325;55.686;37.566;2024-03-22T07:31:43;22.70;;;8.98;;
22314;SDS011;11325;55.686;37.566;2024-03-22T07:34:11;16.12;;;8.45;;
22314;SDS011;11325;55.686;37.566;2024-03-22T07:36:39;17.35;;;7.70;;
22314;SDS011;11325;55.686;37.566;2024-03-22T07:39:07;28.40;;;7.90;;
22314;SDS011;11325;55.686;37.566;2024-03-22T07:41:37;16.42;;;7.87;;
22314;SDS011;11325;55.686;37.566;2024-03-22T07:44:05;23.20;;;8.08;;
22314;SDS011;11325;55.686;37.566;2024-03-22T07:46:33;19.55;;;6.67;;
22314;SDS011;11325;55.686;37.566;2024-03-22T07:49:01;10.60;;;6.35;;
22314;SDS011;11325;55.686;37.566;2024-03-22T07:51:31;17.30;;;7.37;;
22314;SDS011;11325;55.686;37.566;2024-03-22T07:53:59;26.17;;;7.83;;
22314;SDS011;11325;55.686;37.566;2024-03-22T07:56:27;15.90;;;8.38;;
22314;SDS011;11325;55.686;37.566;2024-03-22T07:58:55;21.73;;;8.03;;
22314;SDS011;11325;55.686;37.566;2024-03-22T08:01:23;16.35;;;7.83;;
22314;SDS011;11325;55.686;37.566;2024-03-22T08:03:51;16.45;;;7.33;;
22314;SDS011;11325;55.686;37.566;2024-03-22T08:06:20;15.32;;;8.60;;
22314;SDS011;11325;55.686;37.566;2024-03-22T08:08:48;16.10;;;7.62;;
22314;SDS011;11325;55.686;37.566;2024-03-22T08:11:16;25.37;;;7.95;;
22314;SDS011;11325;55.686;37.566;2024-03-22T08:13:44;17.85;;;7.78;;
22314;SDS011;11325;55.686;37.566;2024-03-22T08:16:13;25.85;;;8.33;;
22314;SDS011;11325;55.686;37.566;2024-03-22T08:18:42;21.37;;;8.13;;
22314;SDS011;11325;55.686;37.566;2024-03-22T08:21:10;16.65;;;7.78;;
22314;SDS011;11325;55.686;37.566;2024-03-22T08:23:38;18.40;;;7.70;;
22314;SDS011;11325;55.686;37.566;2024-03-22T08:26:07;17.98;;;7.33;;
22314;SDS011;11325;55.686;37.566;2024-03-22T08:28:35;20.62;;;7.08;;
22314;SDS011;11325;55.686;37.566;2024-03-22T08:31:05;17.32;;;6.67;;
22314;SDS011;11325;55.686;37.566;2024-03-22T08:33:34;15.40;;;6.65;;
22314;SDS011;11325;55.686;37.566;2024-03-22T08:36:02;13.13;;;6.78;;
22314;SDS011;11325;55.686;37.566;2024-03-22T08:38:30;18.48;;;7.62;;
22314;SDS011;11325;55.686;37.566;2024-03-22T08:40:59;10.00;;;6.45;;
22314;SDS011;11325;55.686;37.566;2024-03-22T08:43:27;16.12;;;6.62;;
22314;SDS011;11325;55.686;37.566;2024-03-22T08:45:56;14.75;;;6.83;;
22314;SDS011;11325;55.686;37.566;2024-03-22T08:48:24;15.72;;;7.17;;
22314;SDS011;11325;55.686;37.566;2024-03-22T08:50:53;14.85;;;6.87;;
22314;SDS011;11325;55.686;37.566;2024-03-22T08:53:21;16.25;;;6.55;;
22314;SDS011;11325;55.686;37.566;2024-03-22T08:55:49;13.40;;;5.90;;
22314;SDS011;11325;55.686;37.566;2024-03-22T08:58:17;16.25;;;6.75;;
22314;SDS011;11325;55.686;37.566;2024-03-22T09:00:46;11.33;;;6.28;;
22314;SDS011;11325;55.686;37.566;2024-03-22T09:03:14;14.18;;;6.15;;
22314;SDS011;11325;55.686;37.566;2024-03-22T09:05:43;15.55;;;5.55;;
22314;SDS011;11325;55.686;37.566;2024-03-22T09:08:11;12.65;;;6.10;;
22314;SDS011;11325;55.686;37.566;2024-03-22T09:10:39;16.55;;;6.65;;
22314;SDS011;11325;55.686;37.566;2024-03-22T09:13:07;18.15;;;6.92;;
22314;SDS011;11325;55.686;37.566;2024-03-22T09:15:37;14.83;;;5.87;;
22314;SDS011;11325;55.686;37.566;2024-03-22T09:18:05;16.35;;;6.45;;
22314;SDS011;11325;55.686;37.566;2024-03-22T09:20:33;16.93;;;5.97;;
22314;SDS011;11325;55.686;37.566;2024-03-22T09:23:01;13.30;;;5.70;;
22314;SDS011;11325;55.686;37.566;2024-03-22T09:25:31;10.98;;;5.33;;
22314;SDS011;11325;55.686;37.566;2024-03-22T09:27:59;8.75;;;5.15;;
22314;SDS011;11325;55.686;37.566;2024-03-22T09:30:28;15.75;;;6.45;;
22314;SDS011;11325;55.686;37.566;2024-03-22T09:32:56;12.90;;;5.78;;
22314;SDS011;11325;55.686;37.566;2024-03-22T09:35:25;12.28;;;6.42;;
22314;SDS011;11325;55.686;37.566;2024-03-22T09:37:54;17.55;;;6.72;;
22314;SDS011;11325;55.686;37.566;2024-03-22T09:40:22;16.50;;;6.58;;
22314;SDS011;11325;55.686;37.566;2024-03-22T09:42:50;16.82;;;6.85;;
22314;SDS011;11325;55.686;37.566;2024-03-22T09:45:19;15.00;;;6.62;;
22314;SDS011;11325;55.686;37.566;2024-03-22T09:47:48;14.15;;;6.75;;
22314;SDS011;11325;55.686;37.566;2024-03-22T09:50:18;10.45;;;6.20;;
22314;SDS011;11325;55.686;37.566;2024-03-22T09:52:46;14.65;;;6.55;;
22314;SDS011;11325;55.686;37.566;2024-03-22T09:55:14;18.42;;;6.25;;
22314;SDS011;11325;55.686;37.566;2024-03-22T09:57:44;9.45;;;5.28;;
22314;SDS011;11325;55.686;37.566;2024-03-22T10:00:13;17.02;;;6.12;;
22314;SDS011;11325;55.686;37.566;2024-03-22T10:02:45;11.25;;;6.37;;
22314;SDS011;11325;55.686;37.566;2024-03-22T10:05:13;10.30;;;6.33;;
22314;SDS011;11325;55.686;37.566;2024-03-22T10:07:41;16.32;;;6.55;;
22314;SDS011;11325;55.686;37.566;2024-03-22T10:10:10;16.87;;;7.28;;
22314;SDS011;11325;55.686;37.566;2024-03-22T10:12:39;14.85;;;6.85;;
22314;SDS011;11325;55.686;37.566;2024-03-22T10:15:07;12.63;;;6.97;;
22314;SDS011;11325;55.686;37.566;2024-03-22T10:17:36;13.50;;;6.33;;
22314;SDS011;11325;55.686;37.566;2024-03-22T10:20:04;16.42;;;6.47;;
22314;SDS011;11325;55.686;37.566;2024-03-22T10:22:34;12.88;;;6.47;;
22314;SDS011;11325;55.686;37.566;2024-03-22T10:25:04;16.02;;;7.00;;
22314;SDS011;11325;55.686;37.566;2024-03-22T10:27:33;15.32;;;6.42;;
22314;SDS011;11325;55.686;37.566;2024-03-22T10:30:02;11.78;;;6.45;;
22314;SDS011;11325;55.686;37.566;2024-03-22T10:32:31;13.70;;;6.70;;
22314;SDS011;11325;55.686;37.566;2024-03-22T10:34:59;14.15;;;6.40;;
22314;SDS011;11325;55.686;37.566;2024-03-22T10:37:28;15.80;;;6.78;;
22314;SDS011;11325;55.686;37.566;2024-03-22T10:39:58;21.60;;;7.92;;
22314;SDS011;11325;55.686;37.566;2024-03-22T10:42:29;16.93;;;7.37;;
22314;SDS011;11325;55.686;37.566;2024-03-22T10:44:57;19.73;;;6.92;;
22314;SDS011;11325;55.686;37.566;2024-03-22T10:47:27;12.85;;;6.35;;
22314;SDS011;11325;55.686;37.566;2024-03-22T10:50:07;12.13;;;6.05;;
22314;SDS011;11325;55.686;37.566;2024-03-22T10:52:25;18.75;;;6.17;;
22314;SDS011;11325;55.686;37.566;2024-03-22T10:54:54;15.30;;;6.47;;
22314;SDS011;11325;55.686;37.566;2024-03-22T10:57:23;15.78;;;6.22;;
22314;SDS011;11325;55.686;37.566;2024-03-22T10:59:53;15.85;;;6.25;;
22314;SDS011;11325;55.686;37.566;2024-03-22T11:02:23;16.37;;;6.47;;
22314;SDS011;11325;55.686;37.566;2024-03-22T11:04:53;11.73;;;6.00;;
22314;SDS011;11325;55.686;37.566;2024-03-22T11:07:22;17.73;;;7.22;;
22314;SDS011;11325;55.686;37.566;2024-03-22T11:09:52;11.50;;;6.70;;
22314;SDS011;11325;55.686;37.566;2024-03-22T11:12:20;12.25;;;6.67;;
22314;SDS011;11325;55.686;37.566;2024-03-22T11:14:48;16.60;;;7.30;;
22314;SDS011;11325;55.686;37.566;2024-03-22T11:17:18;15.72;;;6.12;;
22314;SDS011;11325;55.686;37.566;2024-03-22T11:19:48;11.80;;;6.58;;
22314;SDS011;11325;55.686;37.566;2024-03-22T11:22:16;20.08;;;6.42;;
22314;SDS011;11325;55.686;37.566;2024-03-22T11:24:45;21.00;;;7.00;;
22314;SDS011;11325;55.686;37.566;2024-03-22T11:27:13;16.93;;;6.10;;
22314;SDS011;11325;55.686;37.566;2024-03-22T11:29:42;14.33;;;6.58;;
22314;SDS011;11325;55.686;37.566;2024-03-22T11:32:11;10.90;;;5.92;;
22314;SDS011;11325;55.686;37.566;2024-03-22T11:34:39;9.85;;;5.80;;
22314;SDS011;11325;55.686;37.566;2024-03-22T11:37:11;13.00;;;7.35;;
22314;SDS011;11325;55.686;37.566;2024-03-22T11:39:39;10.20;;;6.70;;
22314;SDS011;11325;55.686;37.566;2024-03-22T11:42:08;13.40;;;6.37;;
22314;SDS011;11325;55.686;37.566;2024-03-22T11:44:38;17.02;;;6.70;;
22314;SDS011;11325;55.686;37.566;2024-03-22T11:47:07;13.70;;;7.17;;
22314;SDS011;11325;55.686;37.566;2024-03-22T11:49:36;16.70;;;7.10;;
22314;SDS011;11325;55.686;37.566;2024-03-22T11:52:04;12.28;;;6.12;;
22314;SDS011;11325;55.686;37.566;2024-03-22T11:54:32;10.68;;;6.37;;
22314;SDS011;11325;55.686;37.566;2024-03-22T11:57:00;13.32;;;5.83;;
22314;SDS011;11325;55.686;37.566;2024-03-22T11:59:29;13.78;;;6.70;;
22314;SDS011;11325;55.686;37.566;2024-03-22T12:01:57;12.68;;;6.25;;
22314;SDS011;11325;55.686;37.566;2024-03-22T12:04:25;11.90;;;5.67;;
22314;SDS011;11325;55.686;37.566;2024-03-22T12:06:54;14.15;;;6.42;;
22314;SDS011;11325;55.686;37.566;2024-03-22T12:09:24;12.75;;;6.05;;
22314;SDS011;11325;55.686;37.566;2024-03-22T12:11:54;12.35;;;6.55;;
22314;SDS011;11325;55.686;37.566;2024-03-22T12:14:22;17.87;;;6.12;;
22314;SDS011;11325;55.686;37.566;2024-03-22T12:16:50;11.88;;;5.12;;
22314;SDS011;11325;55.686;37.566;2024-03-22T12:19:18;15.72;;;5.40;;
22314;SDS011;11325;55.686;37.566;2024-03-22T12:21:47;18.50;;;5.67;;
22314;SDS011;11325;55.686;37.566;2024-03-22T12:24:15;13.28;;;5.95;;
22314;SDS011;11325;55.686;37.566;2024-03-22T12:26:43;14.28;;;5.50;;
22314;SDS011;11325;55.686;37.566;2024-03-22T12:29:15;15.70;;;5.72;;
22314;SDS011;11325;55.686;37.566;2024-03-22T12:31:44;13.08;;;5.55;;
22314;SDS011;11325;55.686;37.566;2024-03-22T12:34:12;9.20;;;4.80;;
22314;SDS011;11325;55.686;37.566;2024-03-22T12:36:40;12.40;;;5.25;;
22314;SDS011;11325;55.686;37.566;2024-03-22T12:39:09;11.83;;;4.90;;
22314;SDS011;11325;55.686;37.566;2024-03-22T12:41:37;12.68;;;5.95;;
22314;SDS011;11325;55.686;37.566;2024-03-22T12:44:05;16.12;;;5.62;;
22314;SDS011;11325;55.686;37.566;2024-03-22T12:46:33;12.33;;;5.78;;
22314;SDS011;11325;55.686;37.566;2024-03-22T12:49:01;11.85;;;5.00;;
22314;SDS011;11325;55.686;37.566;2024-03-22T12:51:30;13.05;;;4.67;;
22314;SDS011;11325;55.686;37.566;2024-03-22T12:53:58;14.25;;;5.05;;
22314;SDS011;11325;55.686;37.566;2024-03-22T12:56:26;12.13;;;5.37;;
22314;SDS011;11325;55.686;37.566;2024-03-22T12:58:54;13.72;;;5.45;;
22314;SDS011;11325;55.686;37.566;2024-03-22T13:01:22;9.83;;;5.05;;
22314;SDS011;11325;55.686;37.566;2024-03-22T13:03:50;14.45;;;5.17;;
22314;SDS011;11325;55.686;37.566;2024-03-22T13:06:18;14.05;;;5.20;;
22314;SDS011;11325;55.686;37.566;2024-03-22T13:08:47;10.28;;;5.12;;
22314;SDS011;11325;55.686;37.566;2024-03-22T13:11:15;13.80;;;5.12;;
22314;SDS011;11325;55.686;37.566;2024-03-22T13:13:45;12.88;;;5.05;;
22314;SDS011;11325;55.686;37.566;2024-03-22T13:16:13;12.05;;;5.15;;
22314;SDS011;11325;55.686;37.566;2024-03-22T13:18:42;9.08;;;5.05;;
22314;SDS011;11325;55.686;37.566;2024-03-22T13:21:10;10.85;;;4.90;;
22314;SDS011;11325;55.686;37.566;2024-03-22T13:23:38;9.60;;;4.72;;
22314;SDS011;11325;55.686;37.566;2024-03-22T13:26:06;11.20;;;4.72;;
22314;SDS011;11325;55.686;37.566;2024-03-22T13:28:35;10.72;;;4.22;;
22314;SDS011;11325;55.686;37.566;2024-03-22T13:31:03;11.93;;;4.28;;
22314;SDS011;11325;55.686;37.566;2024-03-22T13:33:33;11.78;;;4.50;;
22314;SDS011;11325;55.686;37.566;2024-03-22T13:36:01;10.08;;;4.92;;
22314;SDS011;11325;55.686;37.566;2024-03-22T13:38:31;9.15;;;4.55;;
22314;SDS011;11325;55.686;37.566;2024-03-22T13:41:00;11.97;;;5.20;;
22314;SDS011;11325;55.686;37.566;2024-03-22T13:43:30;6.47;;;4.20;;
22314;SDS011;11325;55.686;37.566;2024-03-22T13:46:00;10.20;;;4.53;;
22314;SDS011;11325;55.686;37.566;2024-03-22T13:48:28;11.25;;;5.37;;
22314;SDS011;11325;55.686;37.566;2024-03-22T13:50:57;8.15;;;4.75;;
22314;SDS011;11325;55.686;37.566;2024-03-22T13:53:26;10.68;;;5.08;;
22314;SDS011;11325;55.686;37.566;2024-03-22T13:55:54;12.18;;;4.62;;
22314;SDS011;11325;55.686;37.566;2024-03-22T13:58:23;9.10;;;4.58;;
22314;SDS011;11325;55.686;37.566;2024-03-22T14:00:51;15.78;;;5.00;;
22314;SDS011;11325;55.686;37.566;2024-03-22T14:03:19;9.28;;;4.80;;
22314;SDS011;11325;55.686;37.566;2024-03-22T14:05:48;7.00;;;4.75;;
22314;SDS011;11325;55.686;37.566;2024-03-22T14:08:16;9.48;;;4.60;;
22314;SDS011;11325;55.686;37.566;2024-03-22T14:10:44;13.83;;;5.25;;
22314;SDS011;11325;55.686;37.566;2024-03-22T14:13:13;9.38;;;4.53;;
22314;SDS011;11325;55.686;37.566;2024-03-22T14:15:42;10.20;;;4.75;;
22314;SDS011;11325;55.686;37.566;2024-03-22T14:18:11;9.93;;;5.12;;
22314;SDS011;11325;55.686;37.566;2024-03-22T14:20:39;8.25;;;4.70;;
22314;SDS011;11325;55.686;37.566;2024-03-22T14:23:07;10.43;;;4.87;;
22314;SDS011;11325;55.686;37.566;2024-03-22T14:25:36;6.40;;;4.50;;
22314;SDS011;11325;55.686;37.566;2024-03-22T14:28:05;8.50;;;4.33;;
22314;SDS011;11325;55.686;37.566;2024-03-22T14:30:33;12.23;;;4.60;;